createdAt,value
2023-05-06T00:01:20.232Z,17.20
2023-05-06T00:03:47.967Z,14.30
2023-05-06T00:06:15.067Z,18.17
2023-05-06T00:08:42.244Z,16.67
2023-05-06T00:11:09.544Z,15.50
2023-05-06T00:13:37.875Z,18.03
2023-05-06T00:16:04.863Z,17.23
2023-05-06T00:18:31.651Z,16.70
2023-05-06T00:20:58.785Z,19.20
2023-05-06T00:23:25.482Z,19.37
2023-05-06T00:25:54.262Z,18.17
2023-05-06T00:28:21.403Z,18.83
2023-05-06T00:30:48.047Z,18.27
2023-05-06T00:33:15.254Z,19.90
2023-05-06T00:35:42.048Z,18.27
2023-05-06T00:38:11.205Z,19.57
2023-05-06T00:40:38.431Z,18.53
2023-05-06T00:43:05.537Z,18.83
2023-05-06T00:45:32.785Z,19.73
2023-05-06T00:48:00.065Z,20.30
2023-05-06T00:50:28.324Z,22.20
2023-05-06T00:52:56.955Z,20.03
2023-05-06T00:55:24.304Z,21.20
2023-05-06T00:57:52.127Z,19.20
2023-05-06T01:00:20.339Z,18.73
2023-05-06T01:02:48.385Z,17.80
2023-05-06T01:05:17.754Z,19.97
2023-05-06T01:08:00.459Z,17.67
2023-05-06T01:10:31.607Z,18.90
2023-05-06T01:12:58.688Z,17.07
2023-05-06T01:15:38.307Z,19.20
2023-05-06T01:18:10.209Z,20.43
2023-05-06T01:20:38.642Z,17.43
2023-05-06T01:23:15.346Z,19.83
2023-05-06T01:25:42.316Z,19.10
2023-05-06T01:28:11.433Z,21.33
2023-05-06T01:30:53.081Z,21.20
2023-05-06T01:33:33.898Z,18.33
2023-05-06T01:36:32.081Z,18.63
2023-05-06T01:39:19.501Z,17.83
2023-05-06T01:41:48.945Z,16.77
2023-05-06T01:44:17.237Z,18.47
2023-05-06T01:46:46.118Z,20.70
2023-05-06T01:49:14.823Z,20.50
2023-05-06T01:51:46.794Z,19.63
2023-05-06T01:54:14.457Z,22.80
2023-05-06T01:56:41.152Z,20.37
2023-05-06T01:59:08.302Z,19.90
2023-05-06T02:01:35.319Z,19.30
2023-05-06T02:04:02.643Z,20.13
2023-05-06T02:06:29.402Z,19.37
2023-05-06T02:08:56.105Z,19.60
2023-05-06T02:11:23.261Z,22.67
2023-05-06T02:13:50.495Z,22.00
2023-05-06T02:16:17.271Z,18.63
2023-05-06T02:18:44.085Z,18.77
2023-05-06T02:21:11.251Z,18.50
2023-05-06T02:23:37.983Z,19.30
2023-05-06T02:26:05.228Z,19.40
2023-05-06T02:28:31.886Z,20.07
2023-05-06T02:30:58.813Z,19.63
2023-05-06T02:33:26.161Z,18.17
2023-05-06T02:35:53.256Z,22.30
2023-05-06T02:38:21.227Z,22.33
2023-05-06T02:40:48.579Z,17.50
2023-05-06T02:43:15.372Z,20.83
2023-05-06T02:45:42.457Z,17.07
2023-05-06T02:48:09.134Z,19.67
2023-05-06T02:50:36.212Z,18.40
2023-05-06T02:53:03.366Z,19.30
2023-05-06T02:55:30.525Z,19.97
2023-05-06T02:57:57.206Z,18.00
2023-05-06T03:00:24.291Z,17.77
2023-05-06T03:02:51.034Z,19.47
2023-05-06T03:05:17.929Z,18.10
2023-05-06T03:07:44.979Z,18.77
2023-05-06T03:10:11.729Z,19.77
2023-05-06T03:12:38.919Z,16.77
2023-05-06T03:15:07.107Z,20.03
2023-05-06T03:17:34.314Z,18.47
2023-05-06T03:20:01.105Z,17.97
2023-05-06T03:22:27.773Z,18.80
2023-05-06T03:24:54.463Z,18.10
2023-05-06T03:27:21.099Z,18.53
2023-05-06T03:29:48.234Z,19.67
2023-05-06T03:32:14.919Z,19.97
2023-05-06T03:34:41.973Z,20.83
2023-05-06T03:37:09.104Z,17.03
2023-05-06T03:39:35.964Z,18.83
2023-05-06T03:42:03.064Z,18.13
2023-05-06T03:44:29.765Z,16.30
2023-05-06T03:46:56.831Z,19.60
2023-05-06T03:49:23.643Z,15.80
2023-05-06T03:51:50.958Z,16.80
2023-05-06T03:54:17.948Z,16.97
2023-05-06T03:56:45.044Z,15.70
2023-05-06T03:59:12.175Z,14.80
2023-05-06T04:01:39.295Z,15.27
2023-05-06T04:04:06.127Z,14.53
2023-05-06T04:06:33.308Z,13.37
2023-05-06T04:09:00.479Z,14.70
2023-05-06T04:11:29.574Z,13.60
2023-05-06T04:13:56.480Z,15.73
2023-05-06T04:16:23.628Z,14.47
2023-05-06T04:18:51.611Z,16.00
2023-05-06T04:21:18.490Z,14.27
2023-05-06T04:23:45.156Z,15.93
2023-05-06T04:26:12.234Z,15.00
2023-05-06T04:28:39.378Z,15.07
2023-05-06T04:31:08.457Z,15.03
2023-05-06T04:33:35.684Z,13.50
2023-05-06T04:36:03.386Z,14.90
2023-05-06T04:38:31.976Z,13.73
2023-05-06T04:40:59.594Z,13.80
2023-05-06T04:43:27.711Z,13.50
2023-05-06T04:45:55.204Z,13.43
2023-05-06T04:48:22.876Z,12.80
2023-05-06T04:50:50.653Z,12.90
2023-05-06T04:53:17.550Z,13.17
2023-05-06T04:55:44.228Z,14.43
2023-05-06T04:58:11.295Z,13.07
2023-05-06T05:00:38.015Z,13.07
2023-05-06T05:03:04.864Z,13.77
2023-05-06T05:05:34.179Z,14.23
2023-05-06T05:08:00.818Z,12.50
2023-05-06T05:10:27.466Z,12.43
2023-05-06T05:12:54.618Z,13.77
2023-05-06T05:15:21.469Z,13.33
2023-05-06T05:17:48.728Z,12.77
2023-05-06T05:20:15.853Z,12.57
2023-05-06T05:22:43.032Z,14.60
2023-05-06T05:25:10.273Z,21.47
2023-05-06T05:27:37.161Z,20.97
2023-05-06T05:30:04.144Z,14.13
2023-05-06T05:32:31.353Z,15.70
2023-05-06T05:34:58.141Z,15.30
2023-05-06T05:37:25.257Z,16.20
2023-05-06T05:39:52.414Z,13.57
2023-05-06T05:42:19.478Z,15.10
2023-05-06T05:44:46.220Z,13.70
2023-05-06T05:47:12.981Z,12.43
2023-05-06T05:49:40.763Z,13.30
2023-05-06T05:52:08.260Z,13.73
2023-05-06T05:54:34.912Z,13.53
2023-05-06T05:57:02.456Z,10.57
2023-05-06T05:59:29.413Z,8.80
2023-05-06T06:01:56.105Z,7.10
2023-05-06T06:04:22.962Z,6.20
2023-05-06T06:06:49.764Z,5.72
2023-05-06T06:09:17.391Z,5.80
2023-05-06T06:11:44.185Z,5.40
2023-05-06T06:14:11.240Z,4.30
2023-05-06T06:16:38.098Z,4.45
2023-05-06T06:19:04.975Z,4.93
2023-05-06T06:21:31.701Z,4.35
2023-05-06T06:23:58.496Z,4.80
2023-05-06T06:26:25.274Z,3.90
2023-05-06T06:28:51.910Z,5.25
2023-05-06T06:31:18.753Z,4.10
2023-05-06T06:33:45.585Z,4.50
2023-05-06T06:36:12.252Z,4.75
2023-05-06T06:38:39.089Z,4.53
2023-05-06T06:41:06.003Z,5.68
2023-05-06T06:43:32.739Z,5.70
2023-05-06T06:45:59.970Z,5.28
2023-05-06T06:48:26.727Z,6.30
2023-05-06T06:50:53.404Z,6.47
2023-05-06T06:53:23.506Z,6.47
2023-05-06T06:55:50.169Z,6.60
2023-05-06T06:58:16.903Z,7.43
2023-05-06T07:00:43.536Z,7.67
2023-05-06T07:03:11.019Z,8.10
2023-05-06T07:05:37.717Z,7.30
2023-05-06T07:08:04.437Z,7.83
2023-05-06T07:10:31.149Z,7.27
2023-05-06T07:12:58.395Z,7.40
2023-05-06T07:15:25.647Z,8.33
2023-05-06T07:17:52.413Z,8.20
2023-05-06T07:20:19.117Z,8.50
2023-05-06T07:22:45.897Z,7.43
2023-05-06T07:25:12.926Z,7.50
2023-05-06T07:27:39.816Z,7.10
2023-05-06T07:30:07.185Z,7.67
2023-05-06T07:32:33.849Z,8.00
2023-05-06T07:35:00.620Z,7.57
2023-05-06T07:37:27.298Z,7.77
2023-05-06T07:39:53.966Z,7.40
2023-05-06T07:42:20.604Z,6.50
2023-05-06T07:44:47.262Z,7.37
2023-05-06T07:47:27.293Z,6.93
2023-05-06T07:49:54.560Z,6.30
2023-05-06T07:52:21.863Z,6.30
2023-05-06T07:54:48.607Z,7.30
2023-05-06T07:57:16.001Z,6.20
2023-05-06T07:59:44.029Z,6.00
2023-05-06T08:02:10.851Z,5.50
2023-05-06T08:04:37.831Z,4.53
2023-05-06T08:07:04.630Z,4.37
2023-05-06T08:09:31.456Z,4.30
2023-05-06T08:11:58.345Z,4.53
2023-05-06T08:14:28.689Z,4.77
2023-05-06T08:16:55.533Z,3.90
2023-05-06T08:19:22.856Z,3.70
2023-05-06T08:21:50.394Z,3.70
2023-05-06T08:24:17.111Z,3.53
2023-05-06T08:26:43.816Z,3.10
2023-05-06T08:29:10.474Z,3.07
2023-05-06T08:31:37.254Z,2.80
2023-05-06T08:34:03.952Z,3.07
2023-05-06T08:36:30.826Z,2.70
2023-05-06T08:38:57.743Z,2.40
2023-05-06T08:41:26.226Z,2.20
2023-05-06T08:43:55.052Z,2.40
2023-05-06T08:46:22.806Z,2.47
2023-05-06T08:48:49.553Z,2.40
2023-05-06T08:51:16.868Z,2.40
2023-05-06T08:53:48.524Z,2.10
2023-05-06T08:56:16.397Z,2.60
2023-05-06T08:58:48.294Z,2.10
2023-05-06T09:01:16.028Z,2.50
2023-05-06T09:03:44.090Z,2.30
2023-05-06T09:06:10.966Z,1.90
2023-05-06T09:08:37.662Z,2.90
2023-05-06T09:11:23.128Z,2.03
2023-05-06T09:13:50.787Z,2.00
2023-05-06T09:16:31.649Z,1.90
2023-05-06T09:18:59.450Z,2.30
2023-05-06T09:21:34.530Z,1.50
2023-05-06T09:24:02.405Z,1.70
2023-05-06T09:26:31.359Z,1.60
2023-05-06T09:28:59.131Z,1.90
2023-05-06T09:31:27.612Z,1.43
2023-05-06T09:33:56.442Z,1.58
2023-05-06T09:36:27.412Z,1.55
2023-05-06T09:38:55.642Z,1.70
2023-05-06T09:41:25.225Z,1.60
2023-05-06T09:43:56.575Z,1.70
2023-05-06T09:46:24.587Z,1.80
2023-05-06T09:48:53.362Z,1.73
2023-05-06T09:51:20.934Z,1.50
2023-05-06T09:53:48.680Z,1.70
2023-05-06T09:56:16.473Z,1.50
2023-05-06T09:58:44.538Z,1.60
2023-05-06T10:01:15.193Z,3.25
2023-05-06T10:03:47.031Z,2.10
2023-05-06T10:06:14.080Z,1.63
2023-05-06T10:08:41.356Z,1.40
2023-05-06T10:11:08.638Z,1.42
2023-05-06T10:13:36.834Z,1.42
2023-05-06T10:16:04.663Z,1.42
2023-05-06T10:18:33.102Z,1.90
2023-05-06T10:21:00.680Z,1.60
2023-05-06T10:23:49.101Z,1.42
2023-05-06T10:26:19.637Z,1.58
2023-05-06T10:28:49.538Z,1.40
2023-05-06T10:31:16.918Z,1.52
2023-05-06T10:33:47.536Z,1.33
2023-05-06T10:36:20.432Z,1.40
2023-05-06T10:38:54.876Z,1.45
2023-05-06T10:41:23.270Z,1.10
2023-05-06T10:43:56.743Z,1.25
2023-05-06T10:46:26.194Z,1.23
2023-05-06T10:49:05.535Z,1.20
2023-05-06T10:51:33.383Z,1.40
2023-05-06T10:54:02.514Z,1.20
2023-05-06T10:56:52.345Z,1.30
2023-05-06T10:59:24.655Z,1.30
2023-05-06T11:02:02.660Z,1.40
2023-05-06T11:04:32.409Z,1.45
2023-05-06T11:07:21.031Z,1.55
2023-05-06T11:09:56.396Z,1.30
2023-05-06T11:12:23.760Z,1.45
2023-05-06T11:14:50.962Z,1.45
2023-05-06T11:17:32.316Z,1.65
2023-05-06T11:20:25.315Z,1.80
2023-05-06T11:22:52.999Z,1.63
2023-05-06T11:25:41.257Z,1.50
2023-05-06T11:28:12.660Z,1.40
2023-05-06T11:30:42.180Z,1.42
2023-05-06T11:33:19.581Z,1.60
2023-05-06T11:35:46.348Z,1.30
2023-05-06T11:38:13.392Z,2.00
2023-05-06T11:40:42.569Z,2.47
2023-05-06T11:43:13.931Z,1.77
2023-05-06T11:45:50.801Z,1.40
2023-05-06T11:48:18.206Z,1.80
2023-05-06T11:50:49.286Z,1.70
2023-05-06T11:53:22.548Z,1.45
2023-05-06T11:55:51.674Z,1.50
2023-05-06T11:58:21.000Z,1.90
2023-05-06T12:00:54.622Z,1.70
2023-05-06T12:03:22.099Z,1.77
2023-05-06T12:05:50.268Z,1.65
2023-05-06T12:08:27.789Z,1.75
2023-05-06T12:10:57.864Z,1.70
2023-05-06T12:13:24.711Z,1.60
2023-05-06T12:15:51.986Z,1.90
2023-05-06T12:18:18.822Z,1.60
2023-05-06T12:20:45.998Z,1.35
2023-05-06T12:23:16.101Z,1.30
2023-05-06T12:25:46.915Z,1.42
2023-05-06T12:28:20.939Z,1.55
2023-05-06T12:30:47.927Z,1.70
2023-05-06T12:33:15.041Z,1.42
2023-05-06T12:35:41.773Z,1.20
2023-05-06T12:38:13.571Z,1.63
2023-05-06T12:40:41.295Z,1.20
2023-05-06T12:43:08.815Z,1.65
2023-05-06T12:45:35.919Z,1.50
2023-05-06T12:48:03.896Z,1.88
2023-05-06T12:50:34.894Z,2.38
2023-05-06T12:53:03.288Z,2.70
2023-05-06T12:55:34.319Z,2.38
2023-05-06T12:58:01.151Z,2.58
2023-05-06T13:00:28.266Z,2.17
2023-05-06T13:02:55.058Z,1.60
2023-05-06T13:05:21.864Z,1.50
2023-05-06T13:07:49.170Z,1.33
2023-05-06T13:10:16.386Z,1.48
2023-05-06T13:12:43.201Z,1.20
2023-05-06T13:15:10.756Z,1.13
2023-05-06T13:17:37.465Z,1.50
2023-05-06T13:20:05.470Z,1.23
2023-05-06T13:22:40.304Z,1.35
2023-05-06T13:25:14.326Z,1.40
2023-05-06T13:27:41.026Z,1.70
2023-05-06T13:30:08.900Z,1.48
2023-05-06T13:32:35.811Z,1.50
2023-05-06T13:35:03.019Z,1.25
2023-05-06T13:37:30.282Z,1.60
2023-05-06T13:39:57.826Z,1.65
2023-05-06T13:42:24.513Z,1.90
2023-05-06T13:44:51.602Z,1.67
2023-05-06T13:47:18.345Z,1.70
2023-05-06T13:49:45.165Z,1.63
2023-05-06T13:52:11.856Z,1.80
2023-05-06T13:54:38.608Z,1.20
2023-05-06T13:57:05.669Z,1.55
2023-05-06T13:59:32.421Z,1.60
2023-05-06T14:01:59.728Z,2.20
2023-05-06T14:04:26.920Z,1.60
2023-05-06T14:06:53.727Z,1.95
2023-05-06T14:09:20.897Z,2.03
2023-05-06T14:11:47.644Z,1.92
2023-05-06T14:14:15.492Z,1.88
2023-05-06T14:16:42.682Z,1.50
2023-05-06T14:19:09.390Z,1.40
2023-05-06T14:21:36.133Z,1.52
2023-05-06T14:24:04.309Z,1.80
2023-05-06T14:26:32.791Z,2.03
2023-05-06T14:28:59.511Z,2.15
2023-05-06T14:31:26.719Z,2.30
2023-05-06T14:33:53.863Z,2.40
2023-05-06T14:36:20.609Z,2.15
2023-05-06T14:38:47.725Z,1.92
2023-05-06T14:41:14.491Z,1.90
2023-05-06T14:43:41.170Z,1.93
2023-05-06T14:46:08.281Z,1.93
2023-05-06T14:48:34.936Z,1.60
2023-05-06T14:51:02.094Z,1.57
2023-05-06T14:53:30.333Z,1.75
2023-05-06T14:55:57.147Z,1.80
2023-05-06T14:58:23.958Z,1.60
2023-05-06T15:00:51.096Z,1.88
2023-05-06T15:03:17.839Z,2.37
2023-05-06T15:05:45.276Z,1.83
2023-05-06T15:08:11.955Z,2.10
2023-05-06T15:10:39.082Z,1.80
2023-05-06T15:13:05.807Z,2.20
2023-05-06T15:15:32.520Z,1.73
2023-05-06T15:17:59.618Z,1.75
2023-05-06T15:20:26.726Z,2.00
2023-05-06T15:22:53.878Z,1.70
2023-05-06T15:25:33.540Z,1.53
2023-05-06T15:28:02.047Z,2.20
2023-05-06T15:30:28.758Z,1.70
2023-05-06T15:32:55.533Z,1.63
2023-05-06T15:35:22.685Z,1.90
2023-05-06T15:37:49.386Z,2.00
2023-05-06T15:40:16.963Z,1.90
2023-05-06T15:42:43.690Z,2.05
2023-05-06T15:45:12.143Z,1.90
2023-05-06T15:47:38.959Z,2.25
2023-05-06T15:50:14.122Z,3.70
2023-05-06T15:52:51.836Z,3.47
2023-05-06T15:57:46.398Z,3.75
2023-05-06T16:00:13.922Z,4.20
2023-05-06T16:02:41.135Z,2.20
2023-05-06T16:05:09.753Z,2.63
2023-05-06T16:07:36.663Z,2.30
2023-05-06T16:10:03.853Z,2.35
2023-05-06T16:12:32.583Z,2.40
2023-05-06T16:15:00.118Z,2.60
2023-05-06T16:17:26.919Z,2.58
2023-05-06T16:19:54.050Z,2.50
2023-05-06T16:22:21.204Z,2.40
2023-05-06T16:24:48.377Z,2.40
2023-05-06T16:27:16.100Z,2.92
2023-05-06T16:29:43.238Z,3.78
2023-05-06T16:32:10.323Z,3.28
2023-05-06T16:34:40.231Z,3.20
2023-05-06T16:37:07.909Z,3.57
2023-05-06T16:39:35.045Z,3.50
2023-05-06T16:42:02.239Z,2.90
2023-05-06T16:44:29.257Z,2.73
2023-05-06T16:46:56.374Z,2.25
2023-05-06T16:49:24.038Z,2.05
2023-05-06T16:51:51.164Z,2.30
2023-05-06T16:54:17.860Z,2.30
2023-05-06T16:56:52.126Z,2.20
2023-05-06T16:59:21.990Z,2.40
2023-05-06T17:01:49.178Z,2.40
2023-05-06T17:04:16.686Z,2.40
2023-05-06T17:06:43.532Z,2.28
2023-05-06T17:09:10.860Z,2.20
2023-05-06T17:11:38.022Z,1.90
2023-05-06T17:14:04.970Z,1.90
2023-05-06T17:16:32.223Z,1.95
2023-05-06T17:18:59.378Z,2.03
2023-05-06T17:21:27.797Z,2.00
2023-05-06T17:23:54.921Z,2.00
2023-05-06T17:26:22.315Z,2.20
2023-05-06T17:28:49.158Z,2.00
2023-05-06T17:31:16.375Z,1.80
2023-05-06T17:33:44.652Z,1.80
2023-05-06T17:36:18.492Z,2.20
2023-05-06T17:38:46.020Z,2.10
2023-05-06T17:41:12.663Z,2.10
2023-05-06T17:43:39.579Z,2.40
2023-05-06T17:46:08.289Z,2.50
2023-05-06T17:48:35.708Z,3.53
2023-05-06T17:51:02.859Z,3.47
2023-05-06T17:53:30.937Z,3.27
2023-05-06T17:55:58.032Z,3.42
2023-05-06T17:58:24.896Z,3.75
2023-05-06T18:00:51.974Z,3.60
2023-05-06T18:03:18.704Z,3.40
2023-05-06T18:05:46.295Z,3.40
2023-05-06T18:08:13.391Z,3.73
2023-05-06T18:10:41.330Z,3.30
2023-05-06T18:13:08.846Z,3.07
2023-05-06T18:15:35.680Z,2.87
2023-05-06T18:18:02.842Z,2.90
2023-05-06T18:20:30.004Z,2.77
2023-05-06T18:22:58.805Z,2.60
2023-05-06T18:25:25.918Z,2.67
2023-05-06T18:27:52.594Z,2.80
2023-05-06T18:30:19.738Z,2.50
2023-05-06T18:32:48.234Z,2.70
2023-05-06T18:35:16.902Z,2.57
2023-05-06T18:37:43.978Z,2.60
2023-05-06T18:40:11.111Z,2.60
2023-05-06T18:42:38.238Z,3.00
2023-05-06T18:45:06.851Z,2.63
2023-05-06T18:47:33.759Z,2.53
2023-05-06T18:50:01.079Z,2.50
2023-05-06T18:52:27.828Z,2.60
2023-05-06T18:54:54.931Z,3.50
2023-05-06T18:57:22.544Z,3.30
2023-05-06T18:59:49.222Z,3.00
2023-05-06T19:02:16.270Z,2.97
2023-05-06T19:04:43.645Z,2.77
2023-05-06T19:07:11.126Z,3.40
2023-05-06T19:09:38.255Z,2.80
2023-05-06T19:12:05.379Z,2.70
2023-05-06T19:14:34.587Z,2.77
2023-05-06T19:17:02.870Z,2.73
2023-05-06T19:19:30.288Z,2.87
2023-05-06T19:21:57.504Z,2.63
2023-05-06T19:24:24.233Z,3.00
2023-05-06T19:26:51.436Z,2.87
2023-05-06T19:29:18.530Z,3.37
2023-05-06T19:31:45.204Z,3.10
2023-05-06T19:34:12.330Z,3.40
2023-05-06T19:36:38.986Z,3.10
2023-05-06T19:39:05.860Z,3.70
2023-05-06T19:41:33.404Z,4.20
2023-05-06T19:44:00.503Z,4.20
2023-05-06T19:46:27.652Z,3.87
2023-05-06T19:48:54.844Z,4.00
2023-05-06T19:51:21.488Z,4.10
2023-05-06T19:53:49.023Z,4.10
2023-05-06T19:56:17.155Z,3.70
2023-05-06T19:58:44.279Z,3.30
2023-05-06T20:01:11.536Z,3.30
2023-05-06T20:03:39.057Z,3.30
2023-05-06T20:06:06.972Z,3.20
2023-05-06T20:08:34.727Z,3.73
2023-05-06T20:11:01.885Z,3.43
2023-05-06T20:13:28.634Z,3.37
2023-05-06T20:15:57.324Z,3.23
2023-05-06T20:18:24.539Z,3.03
2023-05-06T20:20:51.576Z,2.70
2023-05-06T20:23:18.278Z,3.00
2023-05-06T20:25:45.014Z,3.00
2023-05-06T20:28:11.904Z,3.37
2023-05-06T20:30:39.145Z,3.80
2023-05-06T20:33:06.036Z,3.40
2023-05-06T20:35:37.938Z,3.27
2023-05-06T20:38:06.072Z,3.07
2023-05-06T20:40:35.683Z,3.50
2023-05-06T20:43:02.976Z,3.80
2023-05-06T20:45:31.152Z,3.30
2023-05-06T20:47:58.219Z,3.43
2023-05-06T20:50:25.656Z,3.00
2023-05-06T20:52:54.268Z,3.57
2023-05-06T20:55:23.132Z,3.80
2023-05-06T20:57:50.740Z,3.00
2023-05-06T21:00:17.891Z,3.63
2023-05-06T21:02:45.101Z,2.80
2023-05-06T21:05:12.286Z,3.83
2023-05-06T21:07:39.264Z,3.50
2023-05-06T21:10:06.419Z,3.10
2023-05-06T21:12:33.606Z,3.30
2023-05-06T21:15:01.237Z,3.80
2023-05-06T21:17:28.767Z,3.87
2023-05-06T21:19:56.231Z,3.40
2023-05-06T21:22:24.000Z,3.23
2023-05-06T21:24:51.208Z,4.03
2023-05-06T21:27:18.430Z,3.80
2023-05-06T21:29:45.156Z,4.10
2023-05-06T21:32:12.265Z,3.50
2023-05-06T21:34:39.371Z,3.60
2023-05-06T21:37:06.069Z,4.37
2023-05-06T21:39:32.820Z,3.93
2023-05-06T21:41:59.608Z,3.77
2023-05-06T21:44:26.725Z,3.97
2023-05-06T21:46:53.906Z,3.33
2023-05-06T21:49:22.291Z,4.53
2023-05-06T21:51:49.239Z,6.80
2023-05-06T21:54:17.105Z,4.30
2023-05-06T21:56:43.881Z,3.90
2023-05-06T21:59:10.865Z,4.77
2023-05-06T22:01:38.089Z,3.90
2023-05-06T22:04:11.039Z,3.87
2023-05-06T22:06:38.569Z,4.37
2023-05-06T22:09:09.180Z,3.70
2023-05-06T22:11:37.928Z,3.33
2023-05-06T22:14:06.367Z,4.40
2023-05-06T22:16:37.976Z,3.40
2023-05-06T22:19:06.270Z,3.87
2023-05-06T22:21:36.388Z,3.33
2023-05-06T22:24:03.481Z,3.57
2023-05-06T22:26:30.277Z,3.57
2023-05-06T22:28:57.508Z,3.13
2023-05-06T22:31:24.756Z,3.07
2023-05-06T22:33:55.186Z,3.13
2023-05-06T22:36:22.389Z,3.27
2023-05-06T22:38:49.162Z,3.23
2023-05-06T22:41:17.358Z,3.20
2023-05-06T22:43:44.080Z,3.17
2023-05-06T22:46:10.819Z,3.93
2023-05-06T22:48:38.022Z,3.20
2023-05-06T22:51:04.901Z,3.50
2023-05-06T22:53:31.970Z,3.50
2023-05-06T22:55:59.160Z,3.33
2023-05-06T22:58:26.015Z,3.40
2023-05-06T23:00:52.718Z,3.40
2023-05-06T23:03:19.595Z,3.30
2023-05-06T23:05:46.398Z,3.40
2023-05-06T23:08:13.132Z,3.30
2023-05-06T23:10:39.935Z,3.60
2023-05-06T23:13:07.240Z,3.33
2023-05-06T23:15:34.124Z,3.60
2023-05-06T23:18:01.364Z,3.20
2023-05-06T23:20:28.114Z,3.30
2023-05-06T23:22:54.822Z,3.10
2023-05-06T23:25:21.931Z,3.27
2023-05-06T23:27:49.026Z,3.93
2023-05-06T23:30:16.186Z,3.60
2023-05-06T23:32:42.947Z,3.70
2023-05-06T23:35:10.445Z,3.60
2023-05-06T23:37:37.336Z,3.40
2023-05-06T23:40:04.642Z,3.50
2023-05-06T23:42:31.748Z,3.77
2023-05-06T23:45:00.194Z,3.30
2023-05-06T23:47:27.003Z,3.70
2023-05-06T23:49:54.168Z,3.40
2023-05-06T23:52:21.291Z,3.50
2023-05-06T23:54:48.016Z,3.40
2023-05-06T23:57:15.402Z,3.20
2023-05-06T23:59:42.135Z,3.43
